Cape Ann — WYJ4022 — position and weather

sailwx.info

Track history (hours):
 
Tides and Currents Weather Stations Pressure Air Temp Water Temp Dewpoint Dewpoint Depression Visibility Wind Speed Wind Dir Waves Ship Positions

Cape Ann

Last reported at 2018-Feb-22 15:00 UTC. Time now 2018-Feb-22 15:12 UTC.
Position N 29°52' W 093°56'.

Length 30 m.

MMSI: 366967350.

Date/timePositionNaut miles runAvg speedWind from/ knotsBaromVisibWave heightAir tempDewpointWater temp
2018-Feb-22 15:00N 29°52' W 093°56'0 0.0
2018-Feb-22 14:30N 29°52' W 093°56'0 0.0
2018-Feb-22 14:00N 29°52' W 093°56'0 0.0
2018-Feb-22 13:30N 29°52' W 093°56'0 0.0
2018-Feb-22 13:00N 29°52' W 093°56'0 0.0
2018-Feb-22 12:30N 29°52' W 093°56'0 0.0
2018-Feb-22 12:00N 29°52' W 093°56'0 0.0
2018-Feb-22 11:30N 29°52' W 093°56'0 0.0
2018-Feb-22 11:00N 29°52' W 093°56'0 0.0
2018-Feb-22 10:30N 29°52' W 093°56'0 0.0
2018-Feb-22 10:00N 29°52' W 093°56'0 0.0
2018-Feb-22 09:30N 29°52' W 093°56'0 0.0
2018-Feb-22 09:00N 29°52' W 093°56'0 0.0
2018-Feb-22 08:30N 29°52' W 093°56'0 0.0
2018-Feb-22 08:00N 29°52' W 093°56'0 0.3
2018-Feb-22 07:30N 29°52' W 093°56'0 1.0
2018-Feb-22 07:00N 29°52' W 093°56'0 0.4
2018-Feb-22 06:30N 29°52' W 093°56'1 2.2
2018-Feb-22 06:00N 29°51' W 093°57'0 0.0
2018-Feb-22 05:30N 29°51' W 093°57'0 0.0
2018-Feb-22 05:00N 29°51' W 093°57'1 1.9
2018-Feb-22 04:30N 29°52' W 093°56'5 9.7
2018-Feb-22 04:00N 29°56' W 093°53'3 5.4
2018-Feb-22 03:30N 29°58' W 093°51'0 0.0
2018-Feb-22 03:00N 29°58' W 093°51'0 0.0
2018-Feb-22 02:30N 29°58' W 093°51'0 0.0
2018-Feb-22 02:00N 29°58' W 093°51'0 0.0
2018-Feb-22 01:30N 29°58' W 093°51'0 0.0
2018-Feb-22 01:00N 29°58' W 093°51'2 3.1
2018-Feb-22 00:30N 29°59' W 093°53'0 0.3
2018-Feb-22 00:00N 29°59' W 093°53'0 0.3
2018-Feb-21 23:28N 29°59' W 093°53'1 2.4
2018-Feb-21 23:00N 29°59' W 093°52'1 1.4
2018-Feb-21 22:30N 29°58' W 093°51'0 0.0
2018-Feb-21 22:00N 29°58' W 093°51'0 0.0
2018-Feb-21 21:30N 29°58' W 093°51'0 0.0
2018-Feb-21 21:00N 29°58' W 093°51'0 0.0
2018-Feb-21 20:30N 29°58' W 093°51'0 0.0
2018-Feb-21 20:00N 29°58' W 093°51'0 0.0
2018-Feb-21 19:30N 29°58' W 093°51'0 0.0
2018-Feb-21 19:00N 29°58' W 093°51'0 0.0
2018-Feb-21 18:30N 29°58' W 093°51'0 0.0
2018-Feb-21 18:00N 29°58' W 093°51'0 0.0
2018-Feb-21 17:30N 29°58' W 093°51'0 0.0
2018-Feb-21 17:00N 29°58' W 093°51'0 0.0
2018-Feb-21 16:29N 29°58' W 093°51'0 0.0
2018-Feb-21 16:00N 29°58' W 093°51'0 0.0
2018-Feb-21 15:30N 29°58' W 093°51'0 0.0
2018-Feb-21 15:00N 29°58' W 093°51'0 0.0
2018-Feb-21 14:30N 29°58' W 093°51'0 0.0
2018-Feb-21 14:00N 29°58' W 093°51'0 0.0
2018-Feb-21 13:30N 29°58' W 093°51'0 0.0
2018-Feb-21 13:00N 29°58' W 093°51'0 0.0
2018-Feb-21 12:30N 29°58' W 093°51'0 0.0
2018-Feb-21 12:00N 29°58' W 093°51'0 0.0
2018-Feb-21 11:30N 29°58' W 093°51'0 0.0
2018-Feb-21 11:00N 29°58' W 093°51'0 0.0
2018-Feb-21 10:29N 29°58' W 093°51'0 0.0
2018-Feb-21 10:00N 29°58' W 093°51'0 0.0
2018-Feb-21 09:30N 29°58' W 093°51'0 0.0
2018-Feb-21 09:00N 29°58' W 093°51'0 0.0
2018-Feb-21 08:30N 29°58' W 093°51'0 0.0
2018-Feb-21 08:00N 29°58' W 093°51'0 0.0
2018-Feb-21 07:30N 29°58' W 093°51'0 0.0
2018-Feb-21 07:00N 29°58' W 093°51'0 0.0
2018-Feb-21 06:30N 29°58' W 093°51'0 0.0
2018-Feb-21 06:00N 29°58' W 093°51'0 0.0
2018-Feb-21 05:30N 29°58' W 093°51'0 0.0
2018-Feb-21 05:00N 29°58' W 093°51'0 0.0
2018-Feb-21 04:30N 29°58' W 093°51'0 0.0
2018-Feb-21 04:00N 29°58' W 093°51'0 0.0
2018-Feb-21 03:30N 29°58' W 093°51'0 0.0
2018-Feb-21 03:00N 29°58' W 093°51'0 0.0
2018-Feb-21 02:30N 29°58' W 093°51'0 0.0
2018-Feb-21 02:00N 29°58' W 093°51'0 0.0
2018-Feb-21 01:30N 29°58' W 093°51'3 5.9
2018-Feb-21 01:00N 29°59' W 093°48'5 9.1
2018-Feb-21 00:30N 30°02' W 093°44'2 4.9
2018-Feb-21 00:00N 30°04' W 093°43'2 3.0
2018-Feb-20 23:30N 30°03' W 093°44'1 2.0
2018-Feb-20 23:00N 30°02' W 093°44'0 0.0
2018-Feb-20 22:30N 30°02' W 093°44'1 3.0
2018-Feb-20 22:00N 30°03' W 093°43'1 2.2
2018-Feb-20 21:28N 30°04' W 093°44'0 0.0
2018-Feb-20 20:59N 30°04' W 093°44'1 0.9
2018-Feb-20 20:16N 30°04' W 093°43'2 8.2
2018-Feb-20 20:00N 30°02' W 093°44'4 8.9
2018-Feb-20 19:30N 29°59' W 093°48'3 6.5
2018-Feb-20 19:00N 29°58' W 093°51'0 0.0
2018-Feb-20 18:30N 29°58' W 093°51'0 0.0
2018-Feb-20 18:00N 29°58' W 093°51'4 7.4
2018-Feb-20 17:30N 29°59' W 093°55'0 0.7
2018-Feb-20 17:00N 29°60' W 093°56'0 0.0
2018-Feb-20 16:30N 29°60' W 093°56'3 6.7
2018-Feb-20 16:00N 30°01' W 093°59'4 7.5
2018-Feb-20 15:30N 30°04' W 094°02'0 0.0
2018-Feb-20 15:00N 30°04' W 094°02'0 0.0
2018-Feb-20 14:30N 30°04' W 094°02'0 0.0
2018-Feb-20 14:00N 30°04' W 094°02'0 0.0
2018-Feb-20 13:30N 30°04' W 094°02'0 0.0
2018-Feb-20 13:00N 30°04' W 094°02'0 0.0
2018-Feb-20 12:30N 30°04' W 094°02'0 0.0
2018-Feb-20 12:00N 30°04' W 094°02'0 0.0
2018-Feb-20 11:30N 30°04' W 094°02'0 0.0
2018-Feb-20 11:00N 30°04' W 094°02'0 0.0
2018-Feb-20 10:30N 30°04' W 094°02'0 0.0
2018-Feb-20 10:00N 30°04' W 094°02'0 0.0
2018-Feb-20 09:30N 30°04' W 094°02'0 0.0
2018-Feb-20 09:00N 30°04' W 094°02'0 0.0
2018-Feb-20 08:30N 30°04' W 094°02'0 0.0
2018-Feb-20 08:00N 30°04' W 094°02'0 0.0
2018-Feb-20 07:30N 30°04' W 094°02'0 0.0
2018-Feb-20 07:00N 30°04' W 094°02'0 0.0
2018-Feb-20 06:30N 30°04' W 094°02'0 0.0
2018-Feb-20 06:00N 30°04' W 094°02'1 1.6
2018-Feb-20 05:30N 30°04' W 094°03'1 1.4
2018-Feb-20 05:00N 30°04' W 094°04'1 2.2
2018-Feb-20 04:30N 30°04' W 094°02'0 0.0
2018-Feb-20 04:00N 30°04' W 094°02'0 0.0
2018-Feb-20 03:30N 30°04' W 094°02'4 7.5
2018-Feb-20 03:00N 30°01' W 093°60'0 0.8
2018-Feb-20 02:30N 30°01' W 093°60'0 0.0
2018-Feb-20 02:00N 30°01' W 093°60'0 0.4
2018-Feb-20 01:30N 30°01' W 093°59'2 3.8
2018-Feb-20 01:00N 30°00' W 093°57'1 1.6
2018-Feb-20 00:30N 29°60' W 093°56'0 0.0
2018-Feb-20 00:00N 29°60' W 093°57'0 0.0
2018-Feb-19 23:30N 29°60' W 093°56'0 0.0
2018-Feb-19 23:00N 29°60' W 093°57'0 0.0
2018-Feb-19 22:30N 29°60' W 093°56'0 0.0
2018-Feb-19 22:00N 29°60' W 093°56'0 0.0
2018-Feb-19 21:30N 29°60' W 093°56'0 0.0
2018-Feb-19 21:00N 29°60' W 093°56'0 0.0
2018-Feb-19 20:30N 29°60' W 093°56'0 0.0
2018-Feb-19 20:00N 29°60' W 093°56'0 0.0
2018-Feb-19 19:30N 29°60' W 093°56'0 0.0
2018-Feb-19 19:00N 29°60' W 093°56'0 0.0
2018-Feb-19 18:30N 29°60' W 093°56'0 0.0
2018-Feb-19 18:00N 29°60' W 093°57'0 0.0
2018-Feb-19 17:30N 29°60' W 093°56'0 0.0
2018-Feb-19 17:00N 29°60' W 093°56'3 5.2
2018-Feb-19 16:30N 30°01' W 093°59'0 0.1
2018-Feb-19 16:00N 30°01' W 093°59'0 0.2
2018-Feb-19 15:30N 30°01' W 093°59'0 0.0
2018-Feb-19 15:00N 30°01' W 093°59'3 5.6
2018-Feb-19 14:30N 30°02' W 094°02'1 2.3
2018-Feb-19 14:00N 30°04' W 094°02'2 3.7
2018-Feb-19 13:30N 30°05' W 094°04'0 0.2
2018-Feb-19 13:00N 30°05' W 094°04'3 5.7
2018-Feb-19 12:30N 30°02' W 094°02'4 8.8
2018-Feb-19 12:00N 30°00' W 093°57'5 9.7
2018-Feb-19 11:30N 29°59' W 093°52'1 1.8
2018-Feb-19 11:00N 29°58' W 093°51'0 0.0
2018-Feb-19 10:30N 29°58' W 093°51'0 0.0
2018-Feb-19 10:00N 29°58' W 093°51'0 0.0
2018-Feb-19 09:30N 29°58' W 093°51'0 0.0
2018-Feb-19 09:00N 29°58' W 093°51'0 0.0
2018-Feb-19 08:30N 29°58' W 093°51'0 0.0
2018-Feb-19 08:00N 29°58' W 093°51'0 0.0
2018-Feb-19 07:30N 29°58' W 093°51'0 0.0
2018-Feb-19 07:00N 29°58' W 093°51'0 0.0
2018-Feb-19 06:30N 29°58' W 093°51'0 0.0
2018-Feb-19 06:00N 29°58' W 093°51'0 0.0
2018-Feb-19 05:30N 29°58' W 093°51'0 0.0
2018-Feb-19 05:00N 29°58' W 093°51'0 0.0
2018-Feb-19 04:30N 29°58' W 093°51'0 0.0
2018-Feb-19 04:00N 29°58' W 093°51'0 0.0
2018-Feb-19 03:30N 29°58' W 093°51'0 0.0
2018-Feb-19 03:00N 29°58' W 093°51'0 0.0
2018-Feb-19 02:30N 29°58' W 093°51'0 0.0
2018-Feb-19 02:00N 29°58' W 093°51'0 0.0
2018-Feb-19 01:30N 29°58' W 093°51'0 0.0
2018-Feb-19 01:00N 29°58' W 093°51'0 0.0
2018-Feb-19 00:30N 29°58' W 093°51'0 0.0
2018-Feb-19 00:00N 29°58' W 093°51'0 0.0
2018-Feb-18 23:30N 29°58' W 093°51'0 0.0
2018-Feb-18 23:00N 29°58' W 093°51'0 0.0
2018-Feb-18 22:30N 29°58' W 093°51'0 0.0
2018-Feb-18 22:00N 29°58' W 093°51'0 0.0
2018-Feb-18 21:30N 29°58' W 093°51'0 0.0
2018-Feb-18 21:00N 29°58' W 093°51'0 0.0
2018-Feb-18 20:30N 29°58' W 093°51'0 0.0
2018-Feb-18 20:00N 29°58' W 093°51'0 0.1
2018-Feb-18 19:30N 29°58' W 093°51'2 3.9
2018-Feb-18 19:00N 29°59' W 093°53'3 6.6
2018-Feb-18 18:30N 29°60' W 093°57'2 4.7
2018-Feb-18 18:00N 30°01' W 093°60'0 0.5
2018-Feb-18 17:30N 30°01' W 093°60'3 5.1
2018-Feb-18 17:00N 29°60' W 093°57'5 9.5
2018-Feb-18 16:30N 29°59' W 093°52'1 1.2
2018-Feb-18 16:00N 29°58' W 093°51'0 0.0
2018-Feb-18 15:30N 29°58' W 093°51'0 0.0
2018-Feb-18 15:00N 29°58' W 093°51'0 0.0
2018-Feb-18 14:30N 29°58' W 093°51'0 0.0
2018-Feb-18 13:59N 29°58' W 093°51'0 0.0
2018-Feb-18 13:30N 29°58' W 093°51'0 0.0
2018-Feb-18 13:00N 29°58' W 093°51'0 0.0
2018-Feb-18 12:30N 29°58' W 093°51'0 0.0
2018-Feb-18 12:00N 29°58' W 093°51'0 0.0
2018-Feb-18 11:30N 29°58' W 093°51'0 0.0
2018-Feb-18 11:00N 29°58' W 093°51'0 0.0
2018-Feb-18 10:30N 29°58' W 093°51'0 0.0
2018-Feb-18 10:00N 29°58' W 093°51'0 0.0
2018-Feb-18 09:30N 29°58' W 093°51'0 0.0
2018-Feb-18 09:00N 29°58' W 093°51'0 0.0
2018-Feb-18 08:30N 29°58' W 093°51'0 0.0
2018-Feb-18 08:00N 29°58' W 093°51'0 0.0
2018-Feb-18 07:30N 29°58' W 093°51'0 0.0
2018-Feb-18 07:00N 29°58' W 093°51'0 0.0
2018-Feb-18 06:30N 29°58' W 093°51'0 0.0
2018-Feb-18 06:00N 29°58' W 093°51'0 0.0
2018-Feb-18 05:30N 29°58' W 093°51'0 0.0
2018-Feb-18 05:00N 29°58' W 093°51'0 0.0
2018-Feb-18 04:30N 29°58' W 093°51'0 0.0
2018-Feb-18 04:00N 29°58' W 093°51'0 0.0
2018-Feb-18 03:30N 29°58' W 093°51'0 0.0
2018-Feb-18 03:00N 29°58' W 093°51'0 0.0
2018-Feb-18 02:30N 29°58' W 093°51'0 0.0
2018-Feb-18 02:00N 29°58' W 093°51'0 0.0
2018-Feb-18 01:30N 29°58' W 093°51'0 0.0
2018-Feb-18 01:00N 29°58' W 093°51'0 0.0
2018-Feb-18 00:30N 29°58' W 093°51'0 0.0
2018-Feb-18 00:00N 29°58' W 093°51'0 0.0
2018-Feb-17 23:30N 29°58' W 093°51'0 0.0
2018-Feb-17 23:00N 29°58' W 093°51'0 0.7
2018-Feb-17 22:30N 29°58' W 093°51'4 8.4
2018-Feb-17 22:00N 29°60' W 093°56'3 6.7
2018-Feb-17 21:30N 30°01' W 093°60'0 0.5
2018-Feb-17 21:00N 30°01' W 093°59'0 0.1
2018-Feb-17 20:29N 30°01' W 093°59'2 3.9
2018-Feb-17 20:00N 30°00' W 093°57'4 8.6
2018-Feb-17 19:30N 29°59' W 093°53'1 2.6
2018-Feb-17 19:00N 29°58' W 093°51'0 0.0
2018-Feb-17 18:30N 29°58' W 093°51'0 0.0
2018-Feb-17 18:00N 29°58' W 093°51'0 0.0
2018-Feb-17 17:30N 29°58' W 093°51'0 0.0
2018-Feb-17 17:00N 29°58' W 093°51'0 0.0
2018-Feb-17 16:30N 29°58' W 093°51'0 0.0
2018-Feb-17 16:00N 29°58' W 093°51'0 0.0
2018-Feb-17 15:30N 29°58' W 093°51'0 0.0
2018-Feb-17 15:00N 29°58' W 093°51'0 0.0
2018-Feb-17 14:30N 29°58' W 093°51'0 0.0
2018-Feb-17 14:00N 29°58' W 093°51'0 0.0
2018-Feb-17 13:30N 29°58' W 093°51'0 0.0
2018-Feb-17 13:00N 29°58' W 093°51'0 0.0
2018-Feb-17 12:30N 29°58' W 093°51'0 0.0
2018-Feb-17 12:00N 29°58' W 093°51'0 0.0
2018-Feb-17 11:30N 29°58' W 093°51'0 0.0
2018-Feb-17 11:00N 29°58' W 093°51'0 0.0
2018-Feb-17 10:30N 29°58' W 093°51'0 0.0
2018-Feb-17 10:00N 29°58' W 093°51'0 0.0
2018-Feb-17 09:30N 29°58' W 093°51'0 0.0
2018-Feb-17 09:00N 29°58' W 093°51'0 0.0
2018-Feb-17 08:30N 29°58' W 093°51'0 0.0
2018-Feb-17 08:00N 29°58' W 093°51'0 0.0
2018-Feb-17 07:30N 29°58' W 093°51'0 0.0
2018-Feb-17 07:00N 29°58' W 093°51'0 0.0
2018-Feb-17 06:30N 29°58' W 093°51'0 0.0
2018-Feb-17 06:00N 29°58' W 093°51'0 0.0
2018-Feb-17 05:30N 29°58' W 093°51'0 0.0
2018-Feb-17 05:00N 29°58' W 093°51'0 0.0
2018-Feb-17 04:30N 29°58' W 093°51'0 0.0
2018-Feb-17 04:00N 29°58' W 093°51'0 0.0
2018-Feb-17 03:30N 29°58' W 093°51'0 0.0
2018-Feb-17 03:00N 29°58' W 093°51'0 0.0
2018-Feb-17 02:30N 29°58' W 093°51'0 0.0
2018-Feb-17 02:00N 29°58' W 093°51'0 0.0
2018-Feb-17 01:30N 29°58' W 093°51'0 0.0
2018-Feb-17 01:00N 29°58' W 093°51'0 0.0
2018-Feb-17 00:30N 29°58' W 093°51'0 0.0
2018-Feb-17 00:00N 29°58' W 093°51'0 0.0
2018-Feb-16 23:30N 29°58' W 093°51'0 0.0
2018-Feb-16 22:59N 29°58' W 093°51'0 0.0
2018-Feb-16 22:30N 29°58' W 093°51'0 0.0
2018-Feb-16 22:00N 29°58' W 093°51'0 0.0
2018-Feb-16 21:30N 29°58' W 093°51'0 0.0
2018-Feb-16 21:00N 29°58' W 093°51'1 1.6
2018-Feb-16 20:30N 29°59' W 093°52'2 4.8
2018-Feb-16 20:00N 29°59' W 093°54'0 0.1
2018-Feb-16 19:30N 29°59' W 093°54'1 2.3
2018-Feb-16 19:00N 29°59' W 093°56'3 6.0
2018-Feb-16 18:30N 29°59' W 093°52'1 2.3
2018-Feb-16 18:00N 29°58' W 093°51'0 0.0
2018-Feb-16 17:30N 29°58' W 093°51'0 0.0
2018-Feb-16 17:00N 29°58' W 093°51'0 0.0
2018-Feb-16 16:30N 29°58' W 093°51'0 0.0
2018-Feb-16 16:00N 29°58' W 093°51'0 0.0
2018-Feb-16 15:30N 29°58' W 093°51'0 0.0
2018-Feb-16 15:00N 29°58' W 093°51'0 0.0
2018-Feb-16 14:30N 29°58' W 093°51'0 0.0
2018-Feb-16 14:00N 29°58' W 093°51'0 0.0
2018-Feb-16 13:30N 29°58' W 093°51'0 0.0
2018-Feb-16 13:00N 29°58' W 093°51'0 0.0
2018-Feb-16 12:30N 29°58' W 093°51'0 0.0
2018-Feb-16 12:00N 29°58' W 093°51'0 0.0
2018-Feb-16 11:30N 29°58' W 093°51'0 0.0
2018-Feb-16 11:00N 29°58' W 093°51'0 0.0
2018-Feb-16 10:30N 29°58' W 093°51'0 0.0
2018-Feb-16 10:00N 29°58' W 093°51'0 0.0
2018-Feb-16 09:30N 29°58' W 093°51'0 0.0
2018-Feb-16 09:00N 29°58' W 093°51'0 0.0
2018-Feb-16 08:30N 29°58' W 093°51'0 0.0
2018-Feb-16 08:00N 29°58' W 093°51'0 0.0
2018-Feb-16 07:30N 29°58' W 093°51'0 0.0
2018-Feb-16 07:00N 29°58' W 093°51'0 0.0
2018-Feb-16 06:30N 29°58' W 093°51'0 0.0
2018-Feb-16 06:00N 29°58' W 093°51'0 0.0
2018-Feb-16 05:30N 29°58' W 093°51'0 0.0
2018-Feb-16 05:00N 29°58' W 093°51'0 0.0
2018-Feb-16 04:30N 29°58' W 093°51'0 0.0
2018-Feb-16 04:00N 29°58' W 093°51'0 0.0
2018-Feb-16 03:30N 29°58' W 093°51'0 0.0
2018-Feb-16 03:00N 29°58' W 093°51'0 0.0
2018-Feb-16 02:30N 29°58' W 093°51'0 0.0
2018-Feb-16 02:00N 29°58' W 093°51'0 0.0
2018-Feb-16 01:30N 29°58' W 093°51'0 0.0
2018-Feb-16 01:00N 29°58' W 093°51'0 0.0
2018-Feb-16 00:30N 29°58' W 093°51'0 0.0
2018-Feb-16 00:00N 29°58' W 093°51'0 0.0
2018-Feb-15 23:30N 29°58' W 093°51'0 0.0
2018-Feb-15 23:00N 29°58' W 093°51'0 0.0
2018-Feb-15 22:30N 29°58' W 093°51'0 0.0
2018-Feb-15 22:00N 29°58' W 093°51'0 0.0
2018-Feb-15 21:30N 29°58' W 093°51'0 0.0
2018-Feb-15 21:00N 29°58' W 093°51'3 5.6
2018-Feb-15 20:30N 29°59' W 093°54'3 5.2
2018-Feb-15 20:00N 30°00' W 093°57'2 4.4
2018-Feb-15 19:30N 30°01' W 093°60'1 1.1
2018-Feb-15 19:00N 30°01' W 094°00'0 0.0
2018-Feb-15 18:30N 30°01' W 094°00'2 4.2
2018-Feb-15 18:00N 30°01' W 093°58'4 8.0
2018-Feb-15 17:30N 29°59' W 093°54'2 4.5
2018-Feb-15 17:00N 29°58' W 093°51'0 0.0
2018-Feb-15 16:30N 29°58' W 093°51'0 0.0
2018-Feb-15 16:00N 29°58' W 093°51'0 0.0
2018-Feb-15 15:30N 29°58' W 093°51'0 0.0
2018-Feb-15 15:00N 29°58' W 093°51'0 0.0
2018-Feb-15 14:30N 29°58' W 093°51'0 0.0
2018-Feb-15 14:00N 29°58' W 093°51'0 0.0
2018-Feb-15 13:30N 29°58' W 093°51'0 0.0
2018-Feb-15 13:00N 29°58' W 093°51'0 0.0
2018-Feb-15 12:30N 29°58' W 093°51'0 0.0
2018-Feb-15 12:00N 29°58' W 093°51'0 0.0
2018-Feb-15 11:30N 29°58' W 093°51'0 0.0
2018-Feb-15 11:00N 29°58' W 093°51'0 0.0
2018-Feb-15 10:30N 29°58' W 093°51'0 0.0
2018-Feb-15 10:00N 29°58' W 093°51'0 0.0
2018-Feb-15 09:30N 29°58' W 093°51'0 0.0
2018-Feb-15 09:00N 29°58' W 093°51'0 0.0
2018-Feb-15 08:30N 29°58' W 093°51'0 0.0
2018-Feb-15 08:00N 29°58' W 093°51'0 0.0
2018-Feb-15 07:30N 29°58' W 093°51'0 0.0
2018-Feb-15 07:00N 29°58' W 093°51'0 0.0
2018-Feb-15 06:30N 29°58' W 093°51'0 0.0
2018-Feb-15 06:00N 29°58' W 093°51'0 0.0
2018-Feb-15 05:30N 29°58' W 093°51'0 0.0
2018-Feb-15 05:00N 29°58' W 093°51'0 0.0
2018-Feb-15 04:30N 29°58' W 093°51'0 0.0
2018-Feb-15 04:00N 29°58' W 093°51'0 0.0
2018-Feb-15 03:30N 29°58' W 093°51'0 0.0
2018-Feb-15 03:00N 29°58' W 093°51'0 0.0
2018-Feb-15 02:30N 29°58' W 093°51'0 0.0
2018-Feb-15 02:00N 29°58' W 093°51'0 0.0
2018-Feb-15 01:30N 29°58' W 093°51'0 0.0
2018-Feb-15 01:00N 29°58' W 093°51'0 0.0
2018-Feb-15 00:30N 29°58' W 093°51'0 0.0
2018-Feb-15 00:00N 29°58' W 093°51'0 0.0
2018-Feb-14 23:30N 29°58' W 093°51'0 0.0
2018-Feb-14 23:00N 29°58' W 093°51'0 0.0
2018-Feb-14 22:30N 29°58' W 093°51'0 0.0
2018-Feb-14 21:59N 29°58' W 093°51'0 0.0
2018-Feb-14 21:30N 29°58' W 093°51'0 0.0
2018-Feb-14 21:00N 29°58' W 093°51'0 0.0
2018-Feb-14 20:30N 29°58' W 093°51'0 0.0
2018-Feb-14 20:00N 29°58' W 093°51'0 0.0
2018-Feb-14 19:30N 29°58' W 093°51'0 0.0
2018-Feb-14 19:00N 29°58' W 093°51'0 0.0
2018-Feb-14 18:30N 29°58' W 093°51'0 0.0
2018-Feb-14 18:00N 29°58' W 093°51'0 0.0
2018-Feb-14 17:30N 29°58' W 093°51'0 0.0
2018-Feb-14 17:00N 29°58' W 093°51'0 0.0
2018-Feb-14 16:30N 29°58' W 093°51'0 0.0
2018-Feb-14 16:00N 29°58' W 093°51'0 0.0
2018-Feb-14 15:30N 29°58' W 093°51'0 0.0
2018-Feb-14 15:00N 29°58' W 093°51'0 0.0
2018-Feb-14 14:30N 29°58' W 093°51'0 0.0
2018-Feb-14 14:00N 29°58' W 093°51'0 0.0
2018-Feb-14 13:30N 29°58' W 093°51'0 0.0
2018-Feb-14 13:00N 29°58' W 093°51'0 0.0
2018-Feb-14 12:30N 29°58' W 093°51'0 0.0
2018-Feb-14 12:00N 29°58' W 093°51'0 0.0
2018-Feb-14 11:30N 29°58' W 093°51'0 0.0
2018-Feb-14 11:00N 29°58' W 093°51'0 0.0
2018-Feb-14 10:30N 29°58' W 093°51'1 1.2
2018-Feb-14 10:00N 29°59' W 093°52'5 9.2
2018-Feb-14 09:30N 29°60' W 093°57'2 4.1
2018-Feb-14 09:00N 30°00' W 093°59'0 0.0
2018-Feb-14 08:30N 30°00' W 093°59'0 0.2
2018-Feb-14 08:00N 30°01' W 093°59'1 1.6
2018-Feb-14 07:29N 30°01' W 093°58'0 0.0
2018-Feb-14 07:00N 30°01' W 093°58'0 0.0
2018-Feb-14 06:30N 30°01' W 093°58'0 0.0
2018-Feb-14 06:00N 30°01' W 093°58'0 0.0
2018-Feb-14 05:30N 30°01' W 093°58'0 0.0
2018-Feb-14 05:00N 30°01' W 093°58'0 0.0
2018-Feb-14 04:30N 30°01' W 093°58'1 1.8
2018-Feb-14 04:00N 30°00' W 093°59'0 0.0
2018-Feb-14 03:30N 30°00' W 093°59'3 5.2
2018-Feb-14 03:00N 29°60' W 093°56'0 1.0
2018-Feb-14 02:30N 29°59' W 093°56'0 0.0
2018-Feb-14 02:00N 29°59' W 093°56'0 0.0
2018-Feb-14 01:30N 29°59' W 093°56'0 0.0
2018-Feb-14 01:00N 29°59' W 093°56'0 0.0
2018-Feb-14 00:30N 29°59' W 093°56'0 0.0
2018-Feb-14 00:00N 29°59' W 093°56'0 0.0
2018-Feb-13 23:30N 29°59' W 093°56'0 0.0
2018-Feb-13 23:00N 29°59' W 093°56'0 0.0
2018-Feb-13 22:30N 29°59' W 093°56'0 0.0
2018-Feb-13 22:00N 29°59' W 093°56'0 0.0
2018-Feb-13 21:30N 29°59' W 093°56'0 0.9
2018-Feb-13 21:00N 29°59' W 093°55'1 1.2
2018-Feb-13 20:30N 29°59' W 093°54'1 1.6
2018-Feb-13 20:00N 29°59' W 093°54'2 4.3
2018-Feb-13 19:30N 29°58' W 093°51'0 0.0
2018-Feb-13 19:00N 29°58' W 093°51'0 0.0
2018-Feb-13 18:30N 29°58' W 093°51'1 1.5
2018-Feb-13 18:00N 29°58' W 093°51'5 9.7
2018-Feb-13 17:30N 30°01' W 093°46'4 8.1
2018-Feb-13 17:00N 30°04' W 093°44'1 0.7
2018-Feb-13 16:12N 30°04' W 093°43'0 1.0
2018-Feb-13 15:59N 30°04' W 093°43'2 4.7
2018-Feb-13 15:30N 30°02' W 093°44'3 6.7
2018-Feb-13 15:00N 29°59' W 093°47'4 7.6
2018-Feb-13 14:30N 29°58' W 093°51'3 7.0
2018-Feb-13 14:00N 29°55' W 093°53'3 6.9
2018-Feb-13 13:30N 29°52' W 093°56'3 6.9
2018-Feb-13 13:00N 29°49' W 093°58'3 6.4
2018-Feb-13 12:30N 29°46' W 093°56'4 7.4
2018-Feb-13 12:00N 29°44' W 093°52'3 6.8
2018-Feb-13 11:30N 29°41' W 093°50'1 2.8
2018-Feb-13 11:00N 29°40' W 093°50'3 6.4
2018-Feb-13 10:30N 29°43' W 093°51'4 7.7
2018-Feb-13 10:00N 29°46' W 093°54'4 7.2
2018-Feb-13 09:30N 29°48' W 093°57'1 2.7
2018-Feb-13 09:00N 29°50' W 093°58'0 0.0
2018-Feb-13 08:30N 29°50' W 093°58'0 0.0
2018-Feb-13 08:00N 29°50' W 093°58'0 0.0
2018-Feb-13 07:30N 29°50' W 093°58'0 0.4
2018-Feb-13 07:00N 29°50' W 093°58'0 0.9
2018-Feb-13 06:30N 29°50' W 093°57'0 0.9
2018-Feb-13 06:00N 29°50' W 093°58'0 0.2
2018-Feb-13 05:30N 29°50' W 093°58'1 1.4
2018-Feb-13 05:00N 29°51' W 093°58'0 0.1
2018-Feb-13 04:30N 29°51' W 093°58'1 1.9
2018-Feb-13 04:00N 29°50' W 093°58'3 5.3
2018-Feb-13 03:30N 29°47' W 093°57'4 7.1
2018-Feb-13 03:00N 29°45' W 093°53'4 8.3
2018-Feb-13 02:30N 29°42' W 093°51'3 6.2
2018-Feb-13 01:59N 29°39' W 093°50'4 8.8
2018-Feb-13 01:30N 29°43' W 093°51'4 8.2
2018-Feb-13 01:00N 29°46' W 093°55'4 7.2
2018-Feb-13 00:30N 29°48' W 093°57'3 6.9
2018-Feb-13 00:00N 29°52' W 093°56'4 7.4
2018-Feb-12 23:30N 29°55' W 093°54'3 7.0
2018-Feb-12 23:00N 29°58' W 093°51'3 6.0
2018-Feb-12 22:28N 29°59' W 093°48'4 7.7
2018-Feb-12 21:58N 30°01' W 093°45'2 3.7
2018-Feb-12 21:18N 30°03' W 093°43'310.8
2018-Feb-12 21:00N 30°01' W 093°45'510.1
2018-Feb-12 20:30N 29°58' W 093°50'510.0
2018-Feb-12 20:00N 29°60' W 093°56'5 9.3
2018-Feb-12 19:30N 30°01' W 094°01'1 2.7
2018-Feb-12 19:00N 30°02' W 094°02'0 0.0
2018-Feb-12 18:30N 30°02' W 094°02'0 0.4
2018-Feb-12 18:00N 30°02' W 094°02'1 2.4
2018-Feb-12 17:30N 30°01' W 094°01'3 5.1
2018-Feb-12 17:00N 30°01' W 093°58'1 1.6
2018-Feb-12 16:30N 30°01' W 093°57'4 7.1
2018-Feb-12 16:00N 29°59' W 093°54'2 4.7
2018-Feb-12 15:30N 29°58' W 093°51'  
Track history (hours):
 
Tides and Currents Weather Stations Pressure Air Temp Water Temp Dewpoint Dewpoint Depression Visibility Wind Speed Wind Dir Waves Ship Positions

Cape Ann

Last reported at 2018-Feb-22 15:00 UTC. Time now 2018-Feb-22 15:12 UTC.
Position N 29°52' W 093°56'.

Length 30 m.

MMSI: 366967350.

Date/timePositionNaut miles runAvg speedWind from/ knotsBaromVisibWave heightAir tempDewpointWater temp
2018-Feb-22 15:00N 29°52' W 093°56'0 0.0
2018-Feb-22 14:30N 29°52' W 093°56'0 0.0
2018-Feb-22 14:00N 29°52' W 093°56'0 0.0
2018-Feb-22 13:30N 29°52' W 093°56'0 0.0
2018-Feb-22 13:00N 29°52' W 093°56'0 0.0
2018-Feb-22 12:30N 29°52' W 093°56'0 0.0
2018-Feb-22 12:00N 29°52' W 093°56'0 0.0
2018-Feb-22 11:30N 29°52' W 093°56'0 0.0
2018-Feb-22 11:00N 29°52' W 093°56'0 0.0
2018-Feb-22 10:30N 29°52' W 093°56'0 0.0
2018-Feb-22 10:00N 29°52' W 093°56'0 0.0
2018-Feb-22 09:30N 29°52' W 093°56'0 0.0
2018-Feb-22 09:00N 29°52' W 093°56'0 0.0
2018-Feb-22 08:30N 29°52' W 093°56'0 0.0
2018-Feb-22 08:00N 29°52' W 093°56'0 0.3
2018-Feb-22 07:30N 29°52' W 093°56'0 1.0
2018-Feb-22 07:00N 29°52' W 093°56'0 0.4
2018-Feb-22 06:30N 29°52' W 093°56'1 2.2
2018-Feb-22 06:00N 29°51' W 093°57'0 0.0
2018-Feb-22 05:30N 29°51' W 093°57'0 0.0
2018-Feb-22 05:00N 29°51' W 093°57'1 1.9
2018-Feb-22 04:30N 29°52' W 093°56'5 9.7
2018-Feb-22 04:00N 29°56' W 093°53'3 5.4
2018-Feb-22 03:30N 29°58' W 093°51'0 0.0
2018-Feb-22 03:00N 29°58' W 093°51'0 0.0
2018-Feb-22 02:30N 29°58' W 093°51'0 0.0
2018-Feb-22 02:00N 29°58' W 093°51'0 0.0
2018-Feb-22 01:30N 29°58' W 093°51'0 0.0
2018-Feb-22 01:00N 29°58' W 093°51'2 3.1
2018-Feb-22 00:30N 29°59' W 093°53'0 0.3
2018-Feb-22 00:00N 29°59' W 093°53'0 0.3
2018-Feb-21 23:28N 29°59' W 093°53'1 2.4
2018-Feb-21 23:00N 29°59' W 093°52'1 1.4
2018-Feb-21 22:30N 29°58' W 093°51'0 0.0
2018-Feb-21 22:00N 29°58' W 093°51'0 0.0
2018-Feb-21 21:30N 29°58' W 093°51'0 0.0
2018-Feb-21 21:00N 29°58' W 093°51'0 0.0
2018-Feb-21 20:30N 29°58' W 093°51'0 0.0
2018-Feb-21 20:00N 29°58' W 093°51'0 0.0
2018-Feb-21 19:30N 29°58' W 093°51'0 0.0
2018-Feb-21 19:00N 29°58' W 093°51'0 0.0
2018-Feb-21 18:30N 29°58' W 093°51'0 0.0
2018-Feb-21 18:00N 29°58' W 093°51'0 0.0
2018-Feb-21 17:30N 29°58' W 093°51'0 0.0
2018-Feb-21 17:00N 29°58' W 093°51'0 0.0
2018-Feb-21 16:29N 29°58' W 093°51'0 0.0
2018-Feb-21 16:00N 29°58' W 093°51'0 0.0
2018-Feb-21 15:30N 29°58' W 093°51'0 0.0
2018-Feb-21 15:00N 29°58' W 093°51'0 0.0
2018-Feb-21 14:30N 29°58' W 093°51'0 0.0
2018-Feb-21 14:00N 29°58' W 093°51'0 0.0
2018-Feb-21 13:30N 29°58' W 093°51'0 0.0
2018-Feb-21 13:00N 29°58' W 093°51'0 0.0
2018-Feb-21 12:30N 29°58' W 093°51'0 0.0
2018-Feb-21 12:00N 29°58' W 093°51'0 0.0
2018-Feb-21 11:30N 29°58' W 093°51'0 0.0
2018-Feb-21 11:00N 29°58' W 093°51'0 0.0
2018-Feb-21 10:29N 29°58' W 093°51'0 0.0
2018-Feb-21 10:00N 29°58' W 093°51'0 0.0
2018-Feb-21 09:30N 29°58' W 093°51'0 0.0
2018-Feb-21 09:00N 29°58' W 093°51'0 0.0
2018-Feb-21 08:30N 29°58' W 093°51'0 0.0
2018-Feb-21 08:00N 29°58' W 093°51'0 0.0
2018-Feb-21 07:30N 29°58' W 093°51'0 0.0
2018-Feb-21 07:00N 29°58' W 093°51'0 0.0
2018-Feb-21 06:30N 29°58' W 093°51'0 0.0
2018-Feb-21 06:00N 29°58' W 093°51'0 0.0
2018-Feb-21 05:30N 29°58' W 093°51'0 0.0
2018-Feb-21 05:00N 29°58' W 093°51'0 0.0
2018-Feb-21 04:30N 29°58' W 093°51'0 0.0
2018-Feb-21 04:00N 29°58' W 093°51'0 0.0
2018-Feb-21 03:30N 29°58' W 093°51'0 0.0
2018-Feb-21 03:00N 29°58' W 093°51'0 0.0
2018-Feb-21 02:30N 29°58' W 093°51'0 0.0
2018-Feb-21 02:00N 29°58' W 093°51'0 0.0
2018-Feb-21 01:30N 29°58' W 093°51'3 5.9
2018-Feb-21 01:00N 29°59' W 093°48'5 9.1
2018-Feb-21 00:30N 30°02' W 093°44'2 4.9
2018-Feb-21 00:00N 30°04' W 093°43'2 3.0
2018-Feb-20 23:30N 30°03' W 093°44'1 2.0
2018-Feb-20 23:00N 30°02' W 093°44'0 0.0
2018-Feb-20 22:30N 30°02' W 093°44'1 3.0
2018-Feb-20 22:00N 30°03' W 093°43'1 2.2
2018-Feb-20 21:28N 30°04' W 093°44'0 0.0
2018-Feb-20 20:59N 30°04' W 093°44'1 0.9
2018-Feb-20 20:16N 30°04' W 093°43'2 8.2
2018-Feb-20 20:00N 30°02' W 093°44'4 8.9
2018-Feb-20 19:30N 29°59' W 093°48'3 6.5
2018-Feb-20 19:00N 29°58' W 093°51'0 0.0
2018-Feb-20 18:30N 29°58' W 093°51'0 0.0
2018-Feb-20 18:00N 29°58' W 093°51'4 7.4
2018-Feb-20 17:30N 29°59' W 093°55'0 0.7
2018-Feb-20 17:00N 29°60' W 093°56'0 0.0
2018-Feb-20 16:30N 29°60' W 093°56'3 6.7
2018-Feb-20 16:00N 30°01' W 093°59'4 7.5
2018-Feb-20 15:30N 30°04' W 094°02'0 0.0
2018-Feb-20 15:00N 30°04' W 094°02'0 0.0
2018-Feb-20 14:30N 30°04' W 094°02'0 0.0
2018-Feb-20 14:00N 30°04' W 094°02'0 0.0
2018-Feb-20 13:30N 30°04' W 094°02'0 0.0
2018-Feb-20 13:00N 30°04' W 094°02'0 0.0
2018-Feb-20 12:30N 30°04' W 094°02'0 0.0
2018-Feb-20 12:00N 30°04' W 094°02'0 0.0
2018-Feb-20 11:30N 30°04' W 094°02'0 0.0
2018-Feb-20 11:00N 30°04' W 094°02'0 0.0
2018-Feb-20 10:30N 30°04' W 094°02'0 0.0
2018-Feb-20 10:00N 30°04' W 094°02'0 0.0
2018-Feb-20 09:30N 30°04' W 094°02'0 0.0
2018-Feb-20 09:00N 30°04' W 094°02'0 0.0
2018-Feb-20 08:30N 30°04' W 094°02'0 0.0
2018-Feb-20 08:00N 30°04' W 094°02'0 0.0
2018-Feb-20 07:30N 30°04' W 094°02'0 0.0
2018-Feb-20 07:00N 30°04' W 094°02'0 0.0
2018-Feb-20 06:30N 30°04' W 094°02'0 0.0
2018-Feb-20 06:00N 30°04' W 094°02'1 1.6
2018-Feb-20 05:30N 30°04' W 094°03'1 1.4
2018-Feb-20 05:00N 30°04' W 094°04'1 2.2
2018-Feb-20 04:30N 30°04' W 094°02'0 0.0
2018-Feb-20 04:00N 30°04' W 094°02'0 0.0
2018-Feb-20 03:30N 30°04' W 094°02'4 7.5
2018-Feb-20 03:00N 30°01' W 093°60'0 0.8
2018-Feb-20 02:30N 30°01' W 093°60'0 0.0
2018-Feb-20 02:00N 30°01' W 093°60'0 0.4
2018-Feb-20 01:30N 30°01' W 093°59'2 3.8
2018-Feb-20 01:00N 30°00' W 093°57'1 1.6
2018-Feb-20 00:30N 29°60' W 093°56'0 0.0
2018-Feb-20 00:00N 29°60' W 093°57'0 0.0
2018-Feb-19 23:30N 29°60' W 093°56'0 0.0
2018-Feb-19 23:00N 29°60' W 093°57'0 0.0
2018-Feb-19 22:30N 29°60' W 093°56'0 0.0
2018-Feb-19 22:00N 29°60' W 093°56'0 0.0
2018-Feb-19 21:30N 29°60' W 093°56'0 0.0
2018-Feb-19 21:00N 29°60' W 093°56'0 0.0
2018-Feb-19 20:30N 29°60' W 093°56'0 0.0
2018-Feb-19 20:00N 29°60' W 093°56'0 0.0
2018-Feb-19 19:30N 29°60' W 093°56'0 0.0
2018-Feb-19 19:00N 29°60' W 093°56'0 0.0
2018-Feb-19 18:30N 29°60' W 093°56'0 0.0
2018-Feb-19 18:00N 29°60' W 093°57'0 0.0
2018-Feb-19 17:30N 29°60' W 093°56'0 0.0
2018-Feb-19 17:00N 29°60' W 093°56'3 5.2
2018-Feb-19 16:30N 30°01' W 093°59'0 0.1
2018-Feb-19 16:00N 30°01' W 093°59'0 0.2
2018-Feb-19 15:30N 30°01' W 093°59'0 0.0
2018-Feb-19 15:00N 30°01' W 093°59'3 5.6
2018-Feb-19 14:30N 30°02' W 094°02'1 2.3
2018-Feb-19 14:00N 30°04' W 094°02'2 3.7
2018-Feb-19 13:30N 30°05' W 094°04'0 0.2
2018-Feb-19 13:00N 30°05' W 094°04'3 5.7
2018-Feb-19 12:30N 30°02' W 094°02'4 8.8
2018-Feb-19 12:00N 30°00' W 093°57'5 9.7
2018-Feb-19 11:30N 29°59' W 093°52'1 1.8
2018-Feb-19 11:00N 29°58' W 093°51'0 0.0
2018-Feb-19 10:30N 29°58' W 093°51'0 0.0
2018-Feb-19 10:00N 29°58' W 093°51'0 0.0
2018-Feb-19 09:30N 29°58' W 093°51'0 0.0
2018-Feb-19 09:00N 29°58' W 093°51'0 0.0
2018-Feb-19 08:30N 29°58' W 093°51'0 0.0
2018-Feb-19 08:00N 29°58' W 093°51'0 0.0
2018-Feb-19 07:30N 29°58' W 093°51'0 0.0
2018-Feb-19 07:00N 29°58' W 093°51'0 0.0
2018-Feb-19 06:30N 29°58' W 093°51'0 0.0
2018-Feb-19 06:00N 29°58' W 093°51'0 0.0
2018-Feb-19 05:30N 29°58' W 093°51'0 0.0
2018-Feb-19 05:00N 29°58' W 093°51'0 0.0
2018-Feb-19 04:30N 29°58' W 093°51'0 0.0
2018-Feb-19 04:00N 29°58' W 093°51'0 0.0
2018-Feb-19 03:30N 29°58' W 093°51'0 0.0
2018-Feb-19 03:00N 29°58' W 093°51'0 0.0
2018-Feb-19 02:30N 29°58' W 093°51'0 0.0
2018-Feb-19 02:00N 29°58' W 093°51'0 0.0
2018-Feb-19 01:30N 29°58' W 093°51'0 0.0
2018-Feb-19 01:00N 29°58' W 093°51'0 0.0
2018-Feb-19 00:30N 29°58' W 093°51'0 0.0
2018-Feb-19 00:00N 29°58' W 093°51'0 0.0
2018-Feb-18 23:30N 29°58' W 093°51'0 0.0
2018-Feb-18 23:00N 29°58' W 093°51'0 0.0
2018-Feb-18 22:30N 29°58' W 093°51'0 0.0
2018-Feb-18 22:00N 29°58' W 093°51'0 0.0
2018-Feb-18 21:30N 29°58' W 093°51'0 0.0
2018-Feb-18 21:00N 29°58' W 093°51'0 0.0
2018-Feb-18 20:30N 29°58' W 093°51'0 0.0
2018-Feb-18 20:00N 29°58' W 093°51'0 0.1
2018-Feb-18 19:30N 29°58' W 093°51'2 3.9
2018-Feb-18 19:00N 29°59' W 093°53'3 6.6
2018-Feb-18 18:30N 29°60' W 093°57'2 4.7
2018-Feb-18 18:00N 30°01' W 093°60'0 0.5
2018-Feb-18 17:30N 30°01' W 093°60'3 5.1
2018-Feb-18 17:00N 29°60' W 093°57'5 9.5
2018-Feb-18 16:30N 29°59' W 093°52'1 1.2
2018-Feb-18 16:00N 29°58' W 093°51'0 0.0
2018-Feb-18 15:30N 29°58' W 093°51'0 0.0
2018-Feb-18 15:00N 29°58' W 093°51'0 0.0
2018-Feb-18 14:30N 29°58' W 093°51'0 0.0
2018-Feb-18 13:59N 29°58' W 093°51'0 0.0
2018-Feb-18 13:30N 29°58' W 093°51'0 0.0
2018-Feb-18 13:00N 29°58' W 093°51'0 0.0
2018-Feb-18 12:30N 29°58' W 093°51'0 0.0
2018-Feb-18 12:00N 29°58' W 093°51'0 0.0
2018-Feb-18 11:30N 29°58' W 093°51'0 0.0
2018-Feb-18 11:00N 29°58' W 093°51'0 0.0
2018-Feb-18 10:30N 29°58' W 093°51'0 0.0
2018-Feb-18 10:00N 29°58' W 093°51'0 0.0
2018-Feb-18 09:30N 29°58' W 093°51'0 0.0
2018-Feb-18 09:00N 29°58' W 093°51'0 0.0
2018-Feb-18 08:30N 29°58' W 093°51'0 0.0
2018-Feb-18 08:00N 29°58' W 093°51'0 0.0
2018-Feb-18 07:30N 29°58' W 093°51'0 0.0
2018-Feb-18 07:00N 29°58' W 093°51'0 0.0
2018-Feb-18 06:30N 29°58' W 093°51'0 0.0
2018-Feb-18 06:00N 29°58' W 093°51'0 0.0
2018-Feb-18 05:30N 29°58' W 093°51'0 0.0
2018-Feb-18 05:00N 29°58' W 093°51'0 0.0
2018-Feb-18 04:30N 29°58' W 093°51'0 0.0
2018-Feb-18 04:00N 29°58' W 093°51'0 0.0
2018-Feb-18 03:30N 29°58' W 093°51'0 0.0
2018-Feb-18 03:00N 29°58' W 093°51'0 0.0
2018-Feb-18 02:30N 29°58' W 093°51'0 0.0
2018-Feb-18 02:00N 29°58' W 093°51'0 0.0
2018-Feb-18 01:30N 29°58' W 093°51'0 0.0
2018-Feb-18 01:00N 29°58' W 093°51'0 0.0
2018-Feb-18 00:30N 29°58' W 093°51'0 0.0
2018-Feb-18 00:00N 29°58' W 093°51'0 0.0
2018-Feb-17 23:30N 29°58' W 093°51'0 0.0
2018-Feb-17 23:00N 29°58' W 093°51'0 0.7
2018-Feb-17 22:30N 29°58' W 093°51'4 8.4
2018-Feb-17 22:00N 29°60' W 093°56'3 6.7
2018-Feb-17 21:30N 30°01' W 093°60'0 0.5
2018-Feb-17 21:00N 30°01' W 093°59'0 0.1
2018-Feb-17 20:29N 30°01' W 093°59'2 3.9
2018-Feb-17 20:00N 30°00' W 093°57'4 8.6
2018-Feb-17 19:30N 29°59' W 093°53'1 2.6
2018-Feb-17 19:00N 29°58' W 093°51'0 0.0
2018-Feb-17 18:30N 29°58' W 093°51'0 0.0
2018-Feb-17 18:00N 29°58' W 093°51'0 0.0
2018-Feb-17 17:30N 29°58' W 093°51'0 0.0
2018-Feb-17 17:00N 29°58' W 093°51'0 0.0
2018-Feb-17 16:30N 29°58' W 093°51'0 0.0
2018-Feb-17 16:00N 29°58' W 093°51'0 0.0
2018-Feb-17 15:30N 29°58' W 093°51'0 0.0
2018-Feb-17 15:00N 29°58' W 093°51'0 0.0
2018-Feb-17 14:30N 29°58' W 093°51'0 0.0
2018-Feb-17 14:00N 29°58' W 093°51'0 0.0
2018-Feb-17 13:30N 29°58' W 093°51'0 0.0
2018-Feb-17 13:00N 29°58' W 093°51'0 0.0
2018-Feb-17 12:30N 29°58' W 093°51'0 0.0
2018-Feb-17 12:00N 29°58' W 093°51'0 0.0
2018-Feb-17 11:30N 29°58' W 093°51'0 0.0
2018-Feb-17 11:00N 29°58' W 093°51'0 0.0
2018-Feb-17 10:30N 29°58' W 093°51'0 0.0
2018-Feb-17 10:00N 29°58' W 093°51'0 0.0
2018-Feb-17 09:30N 29°58' W 093°51'0 0.0
2018-Feb-17 09:00N 29°58' W 093°51'0 0.0
2018-Feb-17 08:30N 29°58' W 093°51'0 0.0
2018-Feb-17 08:00N 29°58' W 093°51'0 0.0
2018-Feb-17 07:30N 29°58' W 093°51'0 0.0
2018-Feb-17 07:00N 29°58' W 093°51'0 0.0
2018-Feb-17 06:30N 29°58' W 093°51'0 0.0
2018-Feb-17 06:00N 29°58' W 093°51'0 0.0
2018-Feb-17 05:30N 29°58' W 093°51'0 0.0
2018-Feb-17 05:00N 29°58' W 093°51'0 0.0
2018-Feb-17 04:30N 29°58' W 093°51'0 0.0
2018-Feb-17 04:00N 29°58' W 093°51'0 0.0
2018-Feb-17 03:30N 29°58' W 093°51'0 0.0
2018-Feb-17 03:00N 29°58' W 093°51'0 0.0
2018-Feb-17 02:30N 29°58' W 093°51'0 0.0
2018-Feb-17 02:00N 29°58' W 093°51'0 0.0
2018-Feb-17 01:30N 29°58' W 093°51'0 0.0
2018-Feb-17 01:00N 29°58' W 093°51'0 0.0
2018-Feb-17 00:30N 29°58' W 093°51'0 0.0
2018-Feb-17 00:00N 29°58' W 093°51'0 0.0
2018-Feb-16 23:30N 29°58' W 093°51'0 0.0
2018-Feb-16 22:59N 29°58' W 093°51'0 0.0
2018-Feb-16 22:30N 29°58' W 093°51'0 0.0
2018-Feb-16 22:00N 29°58' W 093°51'0 0.0
2018-Feb-16 21:30N 29°58' W 093°51'0 0.0
2018-Feb-16 21:00N 29°58' W 093°51'1 1.6
2018-Feb-16 20:30N 29°59' W 093°52'2 4.8
2018-Feb-16 20:00N 29°59' W 093°54'0 0.1
2018-Feb-16 19:30N 29°59' W 093°54'1 2.3
2018-Feb-16 19:00N 29°59' W 093°56'3 6.0
2018-Feb-16 18:30N 29°59' W 093°52'1 2.3
2018-Feb-16 18:00N 29°58' W 093°51'0 0.0
2018-Feb-16 17:30N 29°58' W 093°51'0 0.0
2018-Feb-16 17:00N 29°58' W 093°51'0 0.0
2018-Feb-16 16:30N 29°58' W 093°51'0 0.0
2018-Feb-16 16:00N 29°58' W 093°51'0 0.0
2018-Feb-16 15:30N 29°58' W 093°51'0 0.0
2018-Feb-16 15:00N 29°58' W 093°51'0 0.0
2018-Feb-16 14:30N 29°58' W 093°51'0 0.0
2018-Feb-16 14:00N 29°58' W 093°51'0 0.0
2018-Feb-16 13:30N 29°58' W 093°51'0 0.0
2018-Feb-16 13:00N 29°58' W 093°51'0 0.0
2018-Feb-16 12:30N 29°58' W 093°51'0 0.0
2018-Feb-16 12:00N 29°58' W 093°51'0 0.0
2018-Feb-16 11:30N 29°58' W 093°51'0 0.0
2018-Feb-16 11:00N 29°58' W 093°51'0 0.0
2018-Feb-16 10:30N 29°58' W 093°51'0 0.0
2018-Feb-16 10:00N 29°58' W 093°51'0 0.0
2018-Feb-16 09:30N 29°58' W 093°51'0 0.0
2018-Feb-16 09:00N 29°58' W 093°51'0 0.0
2018-Feb-16 08:30N 29°58' W 093°51'0 0.0
2018-Feb-16 08:00N 29°58' W 093°51'0 0.0
2018-Feb-16 07:30N 29°58' W 093°51'0 0.0
2018-Feb-16 07:00N 29°58' W 093°51'0 0.0
2018-Feb-16 06:30N 29°58' W 093°51'0 0.0
2018-Feb-16 06:00N 29°58' W 093°51'0 0.0
2018-Feb-16 05:30N 29°58' W 093°51'0 0.0
2018-Feb-16 05:00N 29°58' W 093°51'0 0.0
2018-Feb-16 04:30N 29°58' W 093°51'0 0.0
2018-Feb-16 04:00N 29°58' W 093°51'0 0.0
2018-Feb-16 03:30N 29°58' W 093°51'0 0.0
2018-Feb-16 03:00N 29°58' W 093°51'0 0.0
2018-Feb-16 02:30N 29°58' W 093°51'0 0.0
2018-Feb-16 02:00N 29°58' W 093°51'0 0.0
2018-Feb-16 01:30N 29°58' W 093°51'0 0.0
2018-Feb-16 01:00N 29°58' W 093°51'0 0.0
2018-Feb-16 00:30N 29°58' W 093°51'0 0.0
2018-Feb-16 00:00N 29°58' W 093°51'0 0.0
2018-Feb-15 23:30N 29°58' W 093°51'0 0.0
2018-Feb-15 23:00N 29°58' W 093°51'0 0.0
2018-Feb-15 22:30N 29°58' W 093°51'0 0.0
2018-Feb-15 22:00N 29°58' W 093°51'0 0.0
2018-Feb-15 21:30N 29°58' W 093°51'0 0.0
2018-Feb-15 21:00N 29°58' W 093°51'3 5.6
2018-Feb-15 20:30N 29°59' W 093°54'3 5.2
2018-Feb-15 20:00N 30°00' W 093°57'2 4.4
2018-Feb-15 19:30N 30°01' W 093°60'1 1.1
2018-Feb-15 19:00N 30°01' W 094°00'0 0.0
2018-Feb-15 18:30N 30°01' W 094°00'2 4.2
2018-Feb-15 18:00N 30°01' W 093°58'4 8.0
2018-Feb-15 17:30N 29°59' W 093°54'2 4.5
2018-Feb-15 17:00N 29°58' W 093°51'0 0.0
2018-Feb-15 16:30N 29°58' W 093°51'0 0.0
2018-Feb-15 16:00N 29°58' W 093°51'0 0.0
2018-Feb-15 15:30N 29°58' W 093°51'0 0.0
2018-Feb-15 15:00N 29°58' W 093°51'0 0.0
2018-Feb-15 14:30N 29°58' W 093°51'0 0.0
2018-Feb-15 14:00N 29°58' W 093°51'0 0.0
2018-Feb-15 13:30N 29°58' W 093°51'0 0.0
2018-Feb-15 13:00N 29°58' W 093°51'0 0.0
2018-Feb-15 12:30N 29°58' W 093°51'0 0.0
2018-Feb-15 12:00N 29°58' W 093°51'0 0.0
2018-Feb-15 11:30N 29°58' W 093°51'0 0.0
2018-Feb-15 11:00N 29°58' W 093°51'0 0.0
2018-Feb-15 10:30N 29°58' W 093°51'0 0.0
2018-Feb-15 10:00N 29°58' W 093°51'0 0.0
2018-Feb-15 09:30N 29°58' W 093°51'0 0.0
2018-Feb-15 09:00N 29°58' W 093°51'0 0.0
2018-Feb-15 08:30N 29°58' W 093°51'0 0.0
2018-Feb-15 08:00N 29°58' W 093°51'0 0.0
2018-Feb-15 07:30N 29°58' W 093°51'0 0.0
2018-Feb-15 07:00N 29°58' W 093°51'0 0.0
2018-Feb-15 06:30N 29°58' W 093°51'0 0.0
2018-Feb-15 06:00N 29°58' W 093°51'0 0.0
2018-Feb-15 05:30N 29°58' W 093°51'0 0.0
2018-Feb-15 05:00N 29°58' W 093°51'0 0.0
2018-Feb-15 04:30N 29°58' W 093°51'0 0.0
2018-Feb-15 04:00N 29°58' W 093°51'0 0.0
2018-Feb-15 03:30N 29°58' W 093°51'0 0.0
2018-Feb-15 03:00N 29°58' W 093°51'0 0.0
2018-Feb-15 02:30N 29°58' W 093°51'0 0.0
2018-Feb-15 02:00N 29°58' W 093°51'0 0.0
2018-Feb-15 01:30N 29°58' W 093°51'0 0.0
2018-Feb-15 01:00N 29°58' W 093°51'0 0.0
2018-Feb-15 00:30N 29°58' W 093°51'0 0.0
2018-Feb-15 00:00N 29°58' W 093°51'0 0.0
2018-Feb-14 23:30N 29°58' W 093°51'0 0.0
2018-Feb-14 23:00N 29°58' W 093°51'0 0.0
2018-Feb-14 22:30N 29°58' W 093°51'0 0.0
2018-Feb-14 21:59N 29°58' W 093°51'0 0.0
2018-Feb-14 21:30N 29°58' W 093°51'0 0.0
2018-Feb-14 21:00N 29°58' W 093°51'0 0.0
2018-Feb-14 20:30N 29°58' W 093°51'0 0.0
2018-Feb-14 20:00N 29°58' W 093°51'0 0.0
2018-Feb-14 19:30N 29°58' W 093°51'0 0.0
2018-Feb-14 19:00N 29°58' W 093°51'0 0.0
2018-Feb-14 18:30N 29°58' W 093°51'0 0.0
2018-Feb-14 18:00N 29°58' W 093°51'0 0.0
2018-Feb-14 17:30N 29°58' W 093°51'0 0.0
2018-Feb-14 17:00N 29°58' W 093°51'0 0.0
2018-Feb-14 16:30N 29°58' W 093°51'0 0.0
2018-Feb-14 16:00N 29°58' W 093°51'0 0.0
2018-Feb-14 15:30N 29°58' W 093°51'0 0.0
2018-Feb-14 15:00N 29°58' W 093°51'0 0.0
2018-Feb-14 14:30N 29°58' W 093°51'0 0.0
2018-Feb-14 14:00N 29°58' W 093°51'0 0.0
2018-Feb-14 13:30N 29°58' W 093°51'0 0.0
2018-Feb-14 13:00N 29°58' W 093°51'0 0.0
2018-Feb-14 12:30N 29°58' W 093°51'0 0.0
2018-Feb-14 12:00N 29°58' W 093°51'0 0.0
2018-Feb-14 11:30N 29°58' W 093°51'0 0.0
2018-Feb-14 11:00N 29°58' W 093°51'0 0.0
2018-Feb-14 10:30N 29°58' W 093°51'1 1.2
2018-Feb-14 10:00N 29°59' W 093°52'5 9.2
2018-Feb-14 09:30N 29°60' W 093°57'2 4.1
2018-Feb-14 09:00N 30°00' W 093°59'0 0.0
2018-Feb-14 08:30N 30°00' W 093°59'0 0.2
2018-Feb-14 08:00N 30°01' W 093°59'1 1.6
2018-Feb-14 07:29N 30°01' W 093°58'0 0.0
2018-Feb-14 07:00N 30°01' W 093°58'0 0.0
2018-Feb-14 06:30N 30°01' W 093°58'0 0.0
2018-Feb-14 06:00N 30°01' W 093°58'0 0.0
2018-Feb-14 05:30N 30°01' W 093°58'0 0.0
2018-Feb-14 05:00N 30°01' W 093°58'0 0.0
2018-Feb-14 04:30N 30°01' W 093°58'1 1.8
2018-Feb-14 04:00N 30°00' W 093°59'0 0.0
2018-Feb-14 03:30N 30°00' W 093°59'3 5.2
2018-Feb-14 03:00N 29°60' W 093°56'0 1.0
2018-Feb-14 02:30N 29°59' W 093°56'0 0.0
2018-Feb-14 02:00N 29°59' W 093°56'0 0.0
2018-Feb-14 01:30N 29°59' W 093°56'0 0.0
2018-Feb-14 01:00N 29°59' W 093°56'0 0.0
2018-Feb-14 00:30N 29°59' W 093°56'0 0.0
2018-Feb-14 00:00N 29°59' W 093°56'0 0.0
2018-Feb-13 23:30N 29°59' W 093°56'0 0.0
2018-Feb-13 23:00N 29°59' W 093°56'0 0.0
2018-Feb-13 22:30N 29°59' W 093°56'0 0.0
2018-Feb-13 22:00N 29°59' W 093°56'0 0.0
2018-Feb-13 21:30N 29°59' W 093°56'0 0.9
2018-Feb-13 21:00N 29°59' W 093°55'1 1.2
2018-Feb-13 20:30N 29°59' W 093°54'1 1.6
2018-Feb-13 20:00N 29°59' W 093°54'2 4.3
2018-Feb-13 19:30N 29°58' W 093°51'0 0.0
2018-Feb-13 19:00N 29°58' W 093°51'0 0.0
2018-Feb-13 18:30N 29°58' W 093°51'1 1.5
2018-Feb-13 18:00N 29°58' W 093°51'5 9.7
2018-Feb-13 17:30N 30°01' W 093°46'4 8.1
2018-Feb-13 17:00N 30°04' W 093°44'1 0.7
2018-Feb-13 16:12N 30°04' W 093°43'0 1.0
2018-Feb-13 15:59N 30°04' W 093°43'2 4.7
2018-Feb-13 15:30N 30°02' W 093°44'3 6.7
2018-Feb-13 15:00N 29°59' W 093°47'4 7.6
2018-Feb-13 14:30N 29°58' W 093°51'3 7.0
2018-Feb-13 14:00N 29°55' W 093°53'3 6.9
2018-Feb-13 13:30N 29°52' W 093°56'3 6.9
2018-Feb-13 13:00N 29°49' W 093°58'3 6.4
2018-Feb-13 12:30N 29°46' W 093°56'4 7.4
2018-Feb-13 12:00N 29°44' W 093°52'3 6.8
2018-Feb-13 11:30N 29°41' W 093°50'1 2.8
2018-Feb-13 11:00N 29°40' W 093°50'3 6.4
2018-Feb-13 10:30N 29°43' W 093°51'4 7.7
2018-Feb-13 10:00N 29°46' W 093°54'4 7.2
2018-Feb-13 09:30N 29°48' W 093°57'1 2.7
2018-Feb-13 09:00N 29°50' W 093°58'0 0.0
2018-Feb-13 08:30N 29°50' W 093°58'0 0.0
2018-Feb-13 08:00N 29°50' W 093°58'0 0.0
2018-Feb-13 07:30N 29°50' W 093°58'0 0.4
2018-Feb-13 07:00N 29°50' W 093°58'0 0.9
2018-Feb-13 06:30N 29°50' W 093°57'0 0.9
2018-Feb-13 06:00N 29°50' W 093°58'0 0.2
2018-Feb-13 05:30N 29°50' W 093°58'1 1.4
2018-Feb-13 05:00N 29°51' W 093°58'0 0.1
2018-Feb-13 04:30N 29°51' W 093°58'1 1.9
2018-Feb-13 04:00N 29°50' W 093°58'3 5.3
2018-Feb-13 03:30N 29°47' W 093°57'4 7.1
2018-Feb-13 03:00N 29°45' W 093°53'4 8.3
2018-Feb-13 02:30N 29°42' W 093°51'3 6.2
2018-Feb-13 01:59N 29°39' W 093°50'4 8.8
2018-Feb-13 01:30N 29°43' W 093°51'4 8.2
2018-Feb-13 01:00N 29°46' W 093°55'4 7.2
2018-Feb-13 00:30N 29°48' W 093°57'3 6.9
2018-Feb-13 00:00N 29°52' W 093°56'4 7.4
2018-Feb-12 23:30N 29°55' W 093°54'3 7.0
2018-Feb-12 23:00N 29°58' W 093°51'3 6.0
2018-Feb-12 22:28N 29°59' W 093°48'4 7.7
2018-Feb-12 21:58N 30°01' W 093°45'2 3.7
2018-Feb-12 21:18N 30°03' W 093°43'310.8
2018-Feb-12 21:00N 30°01' W 093°45'510.1
2018-Feb-12 20:30N 29°58' W 093°50'510.0
2018-Feb-12 20:00N 29°60' W 093°56'5 9.3
2018-Feb-12 19:30N 30°01' W 094°01'1 2.7
2018-Feb-12 19:00N 30°02' W 094°02'0 0.0
2018-Feb-12 18:30N 30°02' W 094°02'0 0.4
2018-Feb-12 18:00N 30°02' W 094°02'1 2.4
2018-Feb-12 17:30N 30°01' W 094°01'3 5.1
2018-Feb-12 17:00N 30°01' W 093°58'1 1.6
2018-Feb-12 16:30N 30°01' W 093°57'4 7.1
2018-Feb-12 16:00N 29°59' W 093°54'2 4.7
2018-Feb-12 15:30N 29°58' W 093°51'  

Dump ship's entire track history